sensor_id;sensor_type;location;lat;lon;timestamp;noise_LAeq;noise_LA_min;noise_LA_max;noise_LA01;noise_LA95
80864;Laerm;70936;51.680;5.974;2023-08-21T00:06:01;62.49;49.12;69.69;;
80864;Laerm;70936;51.680;5.974;2023-08-21T00:10:01;61.84;48.9;69.36;;
80864;Laerm;70936;51.680;5.974;2023-08-21T00:14:01;51.42;48.59;59.86;;
80864;Laerm;70936;51.680;5.974;2023-08-21T00:18:01;53.42;49.13;71.31;;
80864;Laerm;70936;51.680;5.974;2023-08-21T00:22:01;53.89;48.85;67.9;;
80864;Laerm;70936;51.680;5.974;2023-08-21T00:26:01;54.85;49.26;73.32;;
80864;Laerm;70936;51.680;5.974;2023-08-21T00:30:01;52.09;49.06;62.92;;
80864;Laerm;70936;51.680;5.974;2023-08-21T00:34:01;65.27;49.09;75.83;;
80864;Laerm;70936;51.680;5.974;2023-08-21T00:38:01;66.29;49.49;75.76;;
80864;Laerm;70936;51.680;5.974;2023-08-21T00:42:01;56.18;49.36;71.67;;
80864;Laerm;70936;51.680;5.974;2023-08-21T00:46:01;54.28;49.04;67.29;;
80864;Laerm;70936;51.680;5.974;2023-08-21T00:50:01;53.01;48.86;61.51;;
80864;Laerm;70936;51.680;5.974;2023-08-21T00:54:01;52.88;48.99;72.77;;
80864;Laerm;70936;51.680;5.974;2023-08-21T00:58:01;54.74;49;68.28;;
80864;Laerm;70936;51.680;5.974;2023-08-21T01:02:01;57.52;49.27;71.23;;
80864;Laerm;70936;51.680;5.974;2023-08-21T01:06:01;54.94;48.89;67.31;;
80864;Laerm;70936;51.680;5.974;2023-08-21T01:10:03;54.47;48.92;67.43;;
80864;Laerm;70936;51.680;5.974;2023-08-21T01:14:03;51.39;49.17;59.36;;
80864;Laerm;70936;51.680;5.974;2023-08-21T01:18:01;53.91;49.05;66.62;;
80864;Laerm;70936;51.680;5.974;2023-08-21T01:22:01;51.51;48.85;64.3;;
80864;Laerm;70936;51.680;5.974;2023-08-21T01:26:01;55.73;48.61;74.36;;
80864;Laerm;70936;51.680;5.974;2023-08-21T01:30:02;53.27;48.89;64.59;;
80864;Laerm;70936;51.680;5.974;2023-08-21T01:34:02;55.08;49.29;68.58;;
80864;Laerm;70936;51.680;5.974;2023-08-21T01:38:01;53.66;48.71;64.87;;
80864;Laerm;70936;51.680;5.974;2023-08-21T01:42:01;52.33;48.84;60.84;;
80864;Laerm;70936;51.680;5.974;2023-08-21T01:46:01;50.65;48.87;55.68;;
80864;Laerm;70936;51.680;5.974;2023-08-21T01:50:01;54.53;48.66;63.98;;
80864;Laerm;70936;51.680;5.974;2023-08-21T01:54:01;57.65;48.85;73.24;;
80864;Laerm;70936;51.680;5.974;2023-08-21T01:58:01;52.23;48.74;63.25;;
80864;Laerm;70936;51.680;5.974;2023-08-21T02:02:01;53.15;48.68;66.84;;
80864;Laerm;70936;51.680;5.974;2023-08-21T02:06:01;54.09;49.54;62.64;;
80864;Laerm;70936;51.680;5.974;2023-08-21T02:10:01;50.54;48.86;57.29;;
80864;Laerm;70936;51.680;5.974;2023-08-21T02:14:01;55.12;49.06;70.52;;
80864;Laerm;70936;51.680;5.974;2023-08-21T02:18:01;56.89;48.94;72.18;;
80864;Laerm;70936;51.680;5.974;2023-08-21T02:22:01;56.99;49.23;68.9;;
80864;Laerm;70936;51.680;5.974;2023-08-21T02:26:01;54.86;48.89;67.51;;
80864;Laerm;70936;51.680;5.974;2023-08-21T02:30:01;52.41;48.59;63.29;;
80864;Laerm;70936;51.680;5.974;2023-08-21T02:34:01;55.01;48.68;68.12;;
80864;Laerm;70936;51.680;5.974;2023-08-21T02:38:01;52.78;49.76;67.66;;
80864;Laerm;70936;51.680;5.974;2023-08-21T02:42:01;55.64;48.92;67.07;;
80864;Laerm;70936;51.680;5.974;2023-08-21T02:46:01;55.73;48.88;65.16;;
80864;Laerm;70936;51.680;5.974;2023-08-21T02:50:01;52.46;48.76;65.67;;
80864;Laerm;70936;51.680;5.974;2023-08-21T02:54:01;52.56;48.72;65.62;;
80864;Laerm;70936;51.680;5.974;2023-08-21T02:58:01;53.18;49.01;64.77;;
80864;Laerm;70936;51.680;5.974;2023-08-21T03:02:01;56.02;49.18;65.45;;
80864;Laerm;70936;51.680;5.974;2023-08-21T03:06:01;55.3;49.21;63.62;;
80864;Laerm;70936;51.680;5.974;2023-08-21T03:10:01;55.48;49.23;66.9;;
80864;Laerm;70936;51.680;5.974;2023-08-21T03:14:01;50.23;48.72;60.4;;
80864;Laerm;70936;51.680;5.974;2023-08-21T03:18:01;52.67;49.05;67.28;;
80864;Laerm;70936;51.680;5.974;2023-08-21T03:22:01;51.86;48.83;58.9;;
80864;Laerm;70936;51.680;5.974;2023-08-21T03:26:01;52.13;49.45;58.53;;
80864;Laerm;70936;51.680;5.974;2023-08-21T03:30:01;55.44;50.71;62.94;;
80864;Laerm;70936;51.680;5.974;2023-08-21T03:34:01;54.87;49.92;60.28;;
80864;Laerm;70936;51.680;5.974;2023-08-21T03:38:01;57.02;49.27;66.58;;
80864;Laerm;70936;51.680;5.974;2023-08-21T03:42:01;50.71;48.64;59.39;;
80864;Laerm;70936;51.680;5.974;2023-08-21T03:46:01;63.48;49.1;71.41;;
80864;Laerm;70936;51.680;5.974;2023-08-21T03:50:01;57.79;49.04;68.33;;
80864;Laerm;70936;51.680;5.974;2023-08-21T03:54:01;55.63;49.15;66.41;;
80864;Laerm;70936;51.680;5.974;2023-08-21T03:58:01;53.99;48.98;65.86;;
80864;Laerm;70936;51.680;5.974;2023-08-21T04:02:01;52.72;49.23;60.47;;
80864;Laerm;70936;51.680;5.974;2023-08-21T04:06:01;54.26;48.79;64.02;;
80864;Laerm;70936;51.680;5.974;2023-08-21T04:10:01;56.19;48.77;68.88;;
80864;Laerm;70936;51.680;5.974;2023-08-21T04:14:01;53.83;48.73;66.57;;
80864;Laerm;70936;51.680;5.974;2023-08-21T04:18:01;54.09;48.88;70.74;;
80864;Laerm;70936;51.680;5.974;2023-08-21T04:22:01;51.45;49.05;57.96;;
80864;Laerm;70936;51.680;5.974;2023-08-21T04:26:01;51.49;48.99;59.42;;
80864;Laerm;70936;51.680;5.974;2023-08-21T04:30:01;50.75;48.67;57.41;;
80864;Laerm;70936;51.680;5.974;2023-08-21T04:34:01;50.46;48.75;57.06;;
80864;Laerm;70936;51.680;5.974;2023-08-21T04:38:01;52.93;48.81;63.03;;
80864;Laerm;70936;51.680;5.974;2023-08-21T04:42:01;50.26;48.64;55.9;;
80864;Laerm;70936;51.680;5.974;2023-08-21T04:46:02;50.46;48.81;53.41;;
80864;Laerm;70936;51.680;5.974;2023-08-21T04:50:01;50.53;48.71;53.65;;
80864;Laerm;70936;51.680;5.974;2023-08-21T04:54:01;50.28;48.82;53.63;;
80864;Laerm;70936;51.680;5.974;2023-08-21T04:58:01;50.02;48.63;57.54;;
80864;Laerm;70936;51.680;5.974;2023-08-21T05:02:01;49.86;48.68;56.92;;
80864;Laerm;70936;51.680;5.974;2023-08-21T05:06:01;50.07;48.63;57.3;;
80864;Laerm;70936;51.680;5.974;2023-08-21T05:10:01;50.01;48.81;55.59;;
80864;Laerm;70936;51.680;5.974;2023-08-21T05:14:01;49.8;48.55;55.2;;
80864;Laerm;70936;51.680;5.974;2023-08-21T05:18:01;49.74;48.58;54.4;;
80864;Laerm;70936;51.680;5.974;2023-08-21T05:22:01;50.64;48.75;58.81;;
80864;Laerm;70936;51.680;5.974;2023-08-21T05:26:01;51.36;48.69;55.72;;
80864;Laerm;70936;51.680;5.974;2023-08-21T05:30:01;51.55;48.74;58.8;;
80864;Laerm;70936;51.680;5.974;2023-08-21T05:34:01;54.03;48.59;67.77;;
80864;Laerm;70936;51.680;5.974;2023-08-21T05:38:01;58.19;48.68;69.05;;
80864;Laerm;70936;51.680;5.974;2023-08-21T05:42:01;52.51;48.66;63.47;;
80864;Laerm;70936;51.680;5.974;2023-08-21T05:46:01;51.34;48.56;58.16;;
80864;Laerm;70936;51.680;5.974;2023-08-21T05:50:01;52.87;48.85;64.32;;
80864;Laerm;70936;51.680;5.974;2023-08-21T05:54:01;56.18;49.58;65.76;;
80864;Laerm;70936;51.680;5.974;2023-08-21T05:58:01;55.54;48.87;69.71;;
80864;Laerm;70936;51.680;5.974;2023-08-21T06:02:01;56.33;49.08;66.11;;
80864;Laerm;70936;51.680;5.974;2023-08-21T06:06:01;54.04;48.81;61.99;;
80864;Laerm;70936;51.680;5.974;2023-08-21T06:10:01;51.77;48.87;60.52;;
80864;Laerm;70936;51.680;5.974;2023-08-21T06:14:01;51.24;48.91;55.02;;
80864;Laerm;70936;51.680;5.974;2023-08-21T06:18:01;51.31;48.59;55.26;;
80864;Laerm;70936;51.680;5.974;2023-08-21T06:22:01;51.22;49.39;58.36;;
80864;Laerm;70936;51.680;5.974;2023-08-21T06:26:01;51.48;48.82;57.23;;
80864;Laerm;70936;51.680;5.974;2023-08-21T06:30:01;52.71;49.02;62.43;;
80864;Laerm;70936;51.680;5.974;2023-08-21T06:34:01;55.65;48.99;70.3;;
80864;Laerm;70936;51.680;5.974;2023-08-21T06:38:01;54.64;49.16;71.01;;
80864;Laerm;70936;51.680;5.974;2023-08-21T06:42:01;52.64;48.92;64.65;;
80864;Laerm;70936;51.680;5.974;2023-08-21T06:50:01;56.33;49.55;76.04;;
80864;Laerm;70936;51.680;5.974;2023-08-21T06:54:01;59.2;49.1;71.02;;
80864;Laerm;70936;51.680;5.974;2023-08-21T06:58:01;55.15;49.57;70.17;;
80864;Laerm;70936;51.680;5.974;2023-08-21T07:02:01;57.67;49.92;70.07;;
80864;Laerm;70936;51.680;5.974;2023-08-21T07:06:01;59.23;49.74;72.18;;
80864;Laerm;70936;51.680;5.974;2023-08-21T07:10:01;59.64;50.52;76.41;;
80864;Laerm;70936;51.680;5.974;2023-08-21T07:14:01;62.15;50.45;73.89;;
80864;Laerm;70936;51.680;5.974;2023-08-21T07:18:01;60.62;49.59;74.09;;
80864;Laerm;70936;51.680;5.974;2023-08-21T07:22:01;60.25;49.26;75.82;;
80864;Laerm;70936;51.680;5.974;2023-08-21T07:26:01;56.6;49.37;71.41;;
80864;Laerm;70936;51.680;5.974;2023-08-21T07:30:01;58.38;49.8;70.89;;
80864;Laerm;70936;51.680;5.974;2023-08-21T07:34:01;58.62;49.58;75.28;;
80864;Laerm;70936;51.680;5.974;2023-08-21T07:38:01;64.55;49.93;74.51;;
80864;Laerm;70936;51.680;5.974;2023-08-21T07:42:01;58.43;49.83;71.91;;
80864;Laerm;70936;51.680;5.974;2023-08-21T07:46:02;60.16;50.05;73.67;;
80864;Laerm;70936;51.680;5.974;2023-08-21T07:50:01;57.5;49.4;71.27;;
80864;Laerm;70936;51.680;5.974;2023-08-21T07:54:01;58.81;51.28;75.23;;
80864;Laerm;70936;51.680;5.974;2023-08-21T07:58:01;67.48;50.43;77.22;;
80864;Laerm;70936;51.680;5.974;2023-08-21T08:02:01;59.33;51.29;73.25;;
80864;Laerm;70936;51.680;5.974;2023-08-21T08:06:01;61.3;50.12;75.35;;
80864;Laerm;70936;51.680;5.974;2023-08-21T08:10:01;59.39;49.97;75.76;;
80864;Laerm;70936;51.680;5.974;2023-08-21T08:14:01;58.84;49.88;76.84;;
80864;Laerm;70936;51.680;5.974;2023-08-21T08:18:01;59.66;49.74;75.47;;
80864;Laerm;70936;51.680;5.974;2023-08-21T08:22:01;63.92;51.14;78.16;;
80864;Laerm;70936;51.680;5.974;2023-08-21T08:26:01;61.19;52.29;75.42;;
80864;Laerm;70936;51.680;5.974;2023-08-21T08:30:01;62.1;52.69;71.11;;
80864;Laerm;70936;51.680;5.974;2023-08-21T08:34:01;66.93;51.98;76.61;;
80864;Laerm;70936;51.680;5.974;2023-08-21T08:38:01;60.97;50.48;78.27;;
80864;Laerm;70936;51.680;5.974;2023-08-21T08:42:02;63.57;51.72;75.82;;
80864;Laerm;70936;51.680;5.974;2023-08-21T08:46:01;63.88;51.71;74.61;;
80864;Laerm;70936;51.680;5.974;2023-08-21T08:50:02;63.39;53.02;79.07;;
80864;Laerm;70936;51.680;5.974;2023-08-21T08:54:01;61.43;51.55;79.78;;
80864;Laerm;70936;51.680;5.974;2023-08-21T08:58:01;64.81;51.92;79.57;;
80864;Laerm;70936;51.680;5.974;2023-08-21T09:02:01;59.78;51.21;77.49;;
80864;Laerm;70936;51.680;5.974;2023-08-21T09:06:01;59.14;51.36;75.12;;
80864;Laerm;70936;51.680;5.974;2023-08-21T09:10:01;61.18;52.59;76.52;;
80864;Laerm;70936;51.680;5.974;2023-08-21T09:14:01;63.68;53.14;75.46;;
80864;Laerm;70936;51.680;5.974;2023-08-21T09:18:01;67.28;53.34;75.23;;
80864;Laerm;70936;51.680;5.974;2023-08-21T09:22:07;66.24;52.49;81.63;;
80864;Laerm;70936;51.680;5.974;2023-08-21T09:26:01;63.21;54.96;76.41;;
80864;Laerm;70936;51.680;5.974;2023-08-21T09:30:03;60.99;52.57;71.06;;
80864;Laerm;70936;51.680;5.974;2023-08-21T09:34:01;62.24;54.63;69.76;;
80864;Laerm;70936;51.680;5.974;2023-08-21T09:38:01;63.48;54.09;70.05;;
80864;Laerm;70936;51.680;5.974;2023-08-21T09:42:01;61.44;52.78;74.44;;
80864;Laerm;70936;51.680;5.974;2023-08-21T09:46:01;59.69;54.37;71.41;;
80864;Laerm;70936;51.680;5.974;2023-08-21T09:50:01;57.27;53.49;64.28;;
80864;Laerm;70936;51.680;5.974;2023-08-21T09:54:01;58.98;53.72;65.06;;
80864;Laerm;70936;51.680;5.974;2023-08-21T09:58:02;64.22;56.36;72.45;;
80864;Laerm;70936;51.680;5.974;2023-08-21T10:02:01;65.9;56.01;82.29;;
80864;Laerm;70936;51.680;5.974;2023-08-21T10:06:01;70.02;53.42;82.43;;
80864;Laerm;70936;51.680;5.974;2023-08-21T10:10:01;59.43;54.29;65.25;;
80864;Laerm;70936;51.680;5.974;2023-08-21T10:14:01;61.14;53.46;78.58;;
80864;Laerm;70936;51.680;5.974;2023-08-21T10:18:17;63.36;53.91;79.15;;
80864;Laerm;70936;51.680;5.974;2023-08-21T10:22:01;65.2;53.86;78.42;;
80864;Laerm;70936;51.680;5.974;2023-08-21T10:26:03;66.74;52.75;79.6;;
80864;Laerm;70936;51.680;5.974;2023-08-21T10:30:04;64.5;55.29;76.72;;
80864;Laerm;70936;51.680;5.974;2023-08-21T10:34:02;64.57;52.29;76.5;;
80864;Laerm;70936;51.680;5.974;2023-08-21T10:38:09;61.24;53.63;74.08;;
80864;Laerm;70936;51.680;5.974;2023-08-21T10:42:02;63.27;53.56;78.26;;
80864;Laerm;70936;51.680;5.974;2023-08-21T10:46:01;63.68;52.05;79.09;;
80864;Laerm;70936;51.680;5.974;2023-08-21T10:50:02;62.91;52.45;75.86;;
80864;Laerm;70936;51.680;5.974;2023-08-21T10:54:10;63.75;52.42;76.12;;
80864;Laerm;70936;51.680;5.974;2023-08-21T10:58:01;64;55.58;75.21;;
80864;Laerm;70936;51.680;5.974;2023-08-21T11:02:01;68.53;54.96;75.97;;
80864;Laerm;70936;51.680;5.974;2023-08-21T11:06:03;66.1;54.72;76.19;;
80864;Laerm;70936;51.680;5.974;2023-08-21T11:10:01;70.6;54.22;84.67;;
80864;Laerm;70936;51.680;5.974;2023-08-21T11:14:02;66.48;54.58;76.74;;
80864;Laerm;70936;51.680;5.974;2023-08-21T11:18:01;65.33;54.92;79.76;;
80864;Laerm;70936;51.680;5.974;2023-08-21T11:22:01;63.16;53.75;78.87;;
80864;Laerm;70936;51.680;5.974;2023-08-21T11:26:01;66.78;56.38;79.2;;
80864;Laerm;70936;51.680;5.974;2023-08-21T11:30:01;67.9;54.26;79.19;;
80864;Laerm;70936;51.680;5.974;2023-08-21T11:34:01;67.23;55.66;81.71;;
80864;Laerm;70936;51.680;5.974;2023-08-21T11:38:02;66.38;53.45;86.66;;
80864;Laerm;70936;51.680;5.974;2023-08-21T11:42:02;61.01;53.18;72.78;;
80864;Laerm;70936;51.680;5.974;2023-08-21T11:46:01;67.56;55.63;84.82;;
80864;Laerm;70936;51.680;5.974;2023-08-21T11:50:02;63.98;52.97;76.87;;
80864;Laerm;70936;51.680;5.974;2023-08-21T11:54:01;63.69;54.59;76.32;;
80864;Laerm;70936;51.680;5.974;2023-08-21T11:58:02;66.38;56.82;74.71;;
80864;Laerm;70936;51.680;5.974;2023-08-21T12:02:07;68.3;57.75;76.88;;
80864;Laerm;70936;51.680;5.974;2023-08-21T12:06:03;70.53;58.35;81.68;;
80864;Laerm;70936;51.680;5.974;2023-08-21T12:10:01;65.46;54.99;79.31;;
80864;Laerm;70936;51.680;5.974;2023-08-21T12:14:01;68.59;57.24;82.01;;
80864;Laerm;70936;51.680;5.974;2023-08-21T12:18:01;64.47;56.65;76.67;;
80864;Laerm;70936;51.680;5.974;2023-08-21T12:22:01;69.28;57.54;79.76;;
80864;Laerm;70936;51.680;5.974;2023-08-21T12:26:01;70.49;54.54;87.28;;
80864;Laerm;70936;51.680;5.974;2023-08-21T12:30:01;67.67;58.8;79.43;;
80864;Laerm;70936;51.680;5.974;2023-08-21T12:34:01;72.23;57.48;85.57;;
80864;Laerm;70936;51.680;5.974;2023-08-21T12:38:09;70.6;57.36;80.83;;
80864;Laerm;70936;51.680;5.974;2023-08-21T12:42:01;65.1;56.06;82.79;;
80864;Laerm;70936;51.680;5.974;2023-08-21T12:46:01;61.07;52.23;70.32;;
80864;Laerm;70936;51.680;5.974;2023-08-21T12:50:01;62.85;54.07;72.54;;
80864;Laerm;70936;51.680;5.974;2023-08-21T12:54:01;62.02;54.48;71.46;;
80864;Laerm;70936;51.680;5.974;2023-08-21T12:58:01;70.07;55.79;81.53;;
80864;Laerm;70936;51.680;5.974;2023-08-21T13:02:01;67.33;55.6;80.25;;
80864;Laerm;70936;51.680;5.974;2023-08-21T13:06:01;63.18;53.8;84.7;;
80864;Laerm;70936;51.680;5.974;2023-08-21T13:10:01;62.65;57.25;77.56;;
80864;Laerm;70936;51.680;5.974;2023-08-21T13:14:01;63.55;55.12;77.4;;
80864;Laerm;70936;51.680;5.974;2023-08-21T13:18:01;67.39;55.32;79.73;;
80864;Laerm;70936;51.680;5.974;2023-08-21T13:22:01;63.64;55.8;74.41;;
80864;Laerm;70936;51.680;5.974;2023-08-21T13:26:01;63.23;55.95;71.63;;
80864;Laerm;70936;51.680;5.974;2023-08-21T13:30:01;65.94;56.54;74.13;;
80864;Laerm;70936;51.680;5.974;2023-08-21T13:34:01;66.18;58.93;73.46;;
80864;Laerm;70936;51.680;5.974;2023-08-21T13:38:01;65.74;54.53;78.9;;
80864;Laerm;70936;51.680;5.974;2023-08-21T13:42:01;69.32;54.65;77.91;;
80864;Laerm;70936;51.680;5.974;2023-08-21T13:46:01;66.61;55.74;77.61;;
80864;Laerm;70936;51.680;5.974;2023-08-21T13:50:01;66.8;57.01;75.79;;
80864;Laerm;70936;51.680;5.974;2023-08-21T13:54:01;60.34;54.14;71.6;;
80864;Laerm;70936;51.680;5.974;2023-08-21T13:58:01;61.22;54.06;72.53;;
80864;Laerm;70936;51.680;5.974;2023-08-21T14:02:01;62.68;52.91;72.9;;
80864;Laerm;70936;51.680;5.974;2023-08-21T14:06:01;65.2;52.48;81.74;;
80864;Laerm;70936;51.680;5.974;2023-08-21T14:10:02;61.35;53.19;72.46;;
80864;Laerm;70936;51.680;5.974;2023-08-21T14:14:02;63.98;54.89;71.04;;
80864;Laerm;70936;51.680;5.974;2023-08-21T14:18:01;63.71;51.72;73.64;;
80864;Laerm;70936;51.680;5.974;2023-08-21T14:22:01;68.12;51.5;74.3;;
80864;Laerm;70936;51.680;5.974;2023-08-21T14:26:01;66.33;52.49;72.69;;
80864;Laerm;70936;51.680;5.974;2023-08-21T14:30:01;65.05;51.56;76.93;;
80864;Laerm;70936;51.680;5.974;2023-08-21T14:34:01;59.85;51.6;68.55;;
80864;Laerm;70936;51.680;5.974;2023-08-21T14:38:01;59.31;51.79;72.38;;
80864;Laerm;70936;51.680;5.974;2023-08-21T14:42:01;58.4;52.49;74.06;;
80864;Laerm;70936;51.680;5.974;2023-08-21T14:46:01;62.5;51.21;72.55;;
80864;Laerm;70936;51.680;5.974;2023-08-21T14:50:01;67.91;52.58;76.62;;
80864;Laerm;70936;51.680;5.974;2023-08-21T14:54:01;68.28;52.45;75.84;;
80864;Laerm;70936;51.680;5.974;2023-08-21T14:58:01;67.1;57.01;76.11;;
80864;Laerm;70936;51.680;5.974;2023-08-21T15:02:01;70.37;57.68;79.25;;
80864;Laerm;70936;51.680;5.974;2023-08-21T15:06:01;67.02;55.88;75.15;;
80864;Laerm;70936;51.680;5.974;2023-08-21T15:10:01;59.41;51.05;67.97;;
80864;Laerm;70936;51.680;5.974;2023-08-21T15:14:02;55.38;50.69;65.51;;
80864;Laerm;70936;51.680;5.974;2023-08-21T15:18:01;57.43;52.84;65.75;;
80864;Laerm;70936;51.680;5.974;2023-08-21T15:22:01;55.85;52.23;71.94;;
80864;Laerm;70936;51.680;5.974;2023-08-21T15:26:01;57;52.4;65.12;;
80864;Laerm;70936;51.680;5.974;2023-08-21T15:30:02;61.31;52.15;71.95;;
80864;Laerm;70936;51.680;5.974;2023-08-21T15:34:01;58.8;53.78;71.1;;
80864;Laerm;70936;51.680;5.974;2023-08-21T15:38:01;58.73;53.44;67.6;;
80864;Laerm;70936;51.680;5.974;2023-08-21T15:42:01;57.3;53.07;61.37;;
80864;Laerm;70936;51.680;5.974;2023-08-21T15:46:02;56.67;51.74;65.21;;
80864;Laerm;70936;51.680;5.974;2023-08-21T15:50:01;60.46;53.06;73.79;;
80864;Laerm;70936;51.680;5.974;2023-08-21T15:54:01;60.93;53.48;70.97;;
80864;Laerm;70936;51.680;5.974;2023-08-21T15:58:01;61.98;54.02;73.64;;
80864;Laerm;70936;51.680;5.974;2023-08-21T16:02:01;65.55;55.93;81.46;;
80864;Laerm;70936;51.680;5.974;2023-08-21T16:06:01;60.66;53.02;67.47;;
80864;Laerm;70936;51.680;5.974;2023-08-21T16:10:01;62.77;52.71;76.97;;
80864;Laerm;70936;51.680;5.974;2023-08-21T16:14:01;60.79;52.95;75.63;;
80864;Laerm;70936;51.680;5.974;2023-08-21T16:18:01;61.53;53.25;77.77;;
80864;Laerm;70936;51.680;5.974;2023-08-21T16:22:01;58.36;53.41;67.94;;
80864;Laerm;70936;51.680;5.974;2023-08-21T16:26:01;59.99;52.21;71.38;;
80864;Laerm;70936;51.680;5.974;2023-08-21T16:30:01;65.43;52.03;75.65;;
80864;Laerm;70936;51.680;5.974;2023-08-21T16:34:01;61.26;52.82;76.77;;
80864;Laerm;70936;51.680;5.974;2023-08-21T16:38:01;56.84;51.75;66.06;;
80864;Laerm;70936;51.680;5.974;2023-08-21T16:42:01;58.52;50.18;69.55;;
80864;Laerm;70936;51.680;5.974;2023-08-21T16:46:01;63.43;50.73;73.71;;
80864;Laerm;70936;51.680;5.974;2023-08-21T16:50:01;55.74;52;59.17;;
80864;Laerm;70936;51.680;5.974;2023-08-21T16:54:01;56.1;52.13;60.15;;
80864;Laerm;70936;51.680;5.974;2023-08-21T16:58:01;56.39;50.17;68;;
80864;Laerm;70936;51.680;5.974;2023-08-21T17:02:01;54.7;50.82;62.75;;
80864;Laerm;70936;51.680;5.974;2023-08-21T17:06:01;53.55;49.81;62.01;;
80864;Laerm;70936;51.680;5.974;2023-08-21T17:10:01;51.8;49.94;57.88;;
80864;Laerm;70936;51.680;5.974;2023-08-21T17:14:01;54.59;50.52;61.44;;
80864;Laerm;70936;51.680;5.974;2023-08-21T17:18:02;56.64;50.78;64.41;;
80864;Laerm;70936;51.680;5.974;2023-08-21T17:22:01;54.07;51;62.7;;
80864;Laerm;70936;51.680;5.974;2023-08-21T17:26:01;53.08;50.2;60.65;;
80864;Laerm;70936;51.680;5.974;2023-08-21T17:30:01;54.3;50.58;66.32;;
80864;Laerm;70936;51.680;5.974;2023-08-21T17:34:01;52.47;50.62;60.8;;
80864;Laerm;70936;51.680;5.974;2023-08-21T17:38:02;53.8;50.48;62.15;;
80864;Laerm;70936;51.680;5.974;2023-08-21T17:42:01;53.38;49.74;62.63;;
80864;Laerm;70936;51.680;5.974;2023-08-21T17:46:01;54.53;51.21;61.03;;
80864;Laerm;70936;51.680;5.974;2023-08-21T17:50:01;52.44;50.58;59.84;;
80864;Laerm;70936;51.680;5.974;2023-08-21T17:54:02;53.95;50.56;58.62;;
80864;Laerm;70936;51.680;5.974;2023-08-21T17:58:01;55.2;51.02;59.1;;
80864;Laerm;70936;51.680;5.974;2023-08-21T18:02:01;53.92;51.03;62.41;;
80864;Laerm;70936;51.680;5.974;2023-08-21T18:06:01;54.66;50.51;64.37;;
80864;Laerm;70936;51.680;5.974;2023-08-21T18:10:02;52.73;50.51;60.24;;
80864;Laerm;70936;51.680;5.974;2023-08-21T18:14:01;53.35;50.71;61.33;;
80864;Laerm;70936;51.680;5.974;2023-08-21T18:18:02;56.63;51.76;62.89;;
80864;Laerm;70936;51.680;5.974;2023-08-21T18:22:02;54.91;51.11;61.43;;
80864;Laerm;70936;51.680;5.974;2023-08-21T18:26:01;57.13;50.61;70.09;;
80864;Laerm;70936;51.680;5.974;2023-08-21T18:30:02;60.79;52.42;67.9;;
80864;Laerm;70936;51.680;5.974;2023-08-21T18:34:01;57.66;51.3;69.49;;
80864;Laerm;70936;51.680;5.974;2023-08-21T18:38:02;58.31;49.96;72.26;;
80864;Laerm;70936;51.680;5.974;2023-08-21T18:42:01;57.89;49.77;71.2;;
80864;Laerm;70936;51.680;5.974;2023-08-21T18:46:01;54.72;49.48;66.27;;
80864;Laerm;70936;51.680;5.974;2023-08-21T18:50:02;53.83;50.43;65.6;;
80864;Laerm;70936;51.680;5.974;2023-08-21T18:54:01;54.48;49.58;76.4;;
80864;Laerm;70936;51.680;5.974;2023-08-21T18:58:02;54.91;50.49;70.01;;
80864;Laerm;70936;51.680;5.974;2023-08-21T19:02:02;53.72;50.26;58.27;;
80864;Laerm;70936;51.680;5.974;2023-08-21T19:06:01;53.39;49.68;62.02;;
80864;Laerm;70936;51.680;5.974;2023-08-21T19:10:02;54.48;50;61.54;;
80864;Laerm;70936;51.680;5.974;2023-08-21T19:14:01;54.95;49.29;62.68;;
80864;Laerm;70936;51.680;5.974;2023-08-21T19:18:02;57.72;49.59;65.42;;
80864;Laerm;70936;51.680;5.974;2023-08-21T19:22:02;52.54;49.74;58.52;;
80864;Laerm;70936;51.680;5.974;2023-08-21T19:26:02;51.7;48.84;60.02;;
80864;Laerm;70936;51.680;5.974;2023-08-21T19:30:02;55.93;49.65;76.27;;
80864;Laerm;70936;51.680;5.974;2023-08-21T19:34:01;52.71;49.21;57.04;;
80864;Laerm;70936;51.680;5.974;2023-08-21T19:38:02;52.97;49.5;60.94;;
80864;Laerm;70936;51.680;5.974;2023-08-21T19:42:02;52.36;48.92;63.76;;
80864;Laerm;70936;51.680;5.974;2023-08-21T19:46:01;50.04;48.7;54.02;;
80864;Laerm;70936;51.680;5.974;2023-08-21T19:50:02;51.06;48.76;57.27;;
80864;Laerm;70936;51.680;5.974;2023-08-21T19:54:01;55.48;48.9;63.18;;
80864;Laerm;70936;51.680;5.974;2023-08-21T19:58:02;53.43;49.12;65.75;;
80864;Laerm;70936;51.680;5.974;2023-08-21T20:02:02;53.53;49.46;60.75;;
80864;Laerm;70936;51.680;5.974;2023-08-21T20:06:02;52.77;49.12;67.91;;
80864;Laerm;70936;51.680;5.974;2023-08-21T20:10:01;54.22;48.82;64.48;;
80864;Laerm;70936;51.680;5.974;2023-08-21T20:14:01;52.54;48.9;60.95;;
80864;Laerm;70936;51.680;5.974;2023-08-21T20:18:02;53.43;49.11;61.85;;
80864;Laerm;70936;51.680;5.974;2023-08-21T20:22:02;51.54;49.1;59.82;;
80864;Laerm;70936;51.680;5.974;2023-08-21T20:26:02;53.26;49.06;63.58;;
80864;Laerm;70936;51.680;5.974;2023-08-21T20:30:02;54.56;50.42;64.6;;
80864;Laerm;70936;51.680;5.974;2023-08-21T20:34:01;53.19;49.31;62.52;;
80864;Laerm;70936;51.680;5.974;2023-08-21T20:38:02;56.23;49.85;67.7;;
80864;Laerm;70936;51.680;5.974;2023-08-21T20:42:02;53.02;49.56;60.53;;
80864;Laerm;70936;51.680;5.974;2023-08-21T20:46:02;54.41;48.86;65.46;;
80864;Laerm;70936;51.680;5.974;2023-08-21T20:50:02;55.08;48.73;67.01;;
80864;Laerm;70936;51.680;5.974;2023-08-21T20:54:02;54.61;48.81;62.13;;
80864;Laerm;70936;51.680;5.974;2023-08-21T20:58:02;51.97;49.05;59.9;;
80864;Laerm;70936;51.680;5.974;2023-08-21T21:02:01;51.18;48.94;58.48;;
80864;Laerm;70936;51.680;5.974;2023-08-21T21:06:02;51.58;48.99;61.33;;
80864;Laerm;70936;51.680;5.974;2023-08-21T21:10:02;51.36;48.9;60.4;;
80864;Laerm;70936;51.680;5.974;2023-08-21T21:14:02;57.09;49.35;63.02;;
80864;Laerm;70936;51.680;5.974;2023-08-21T21:18:02;53.51;48.95;59.99;;
80864;Laerm;70936;51.680;5.974;2023-08-21T21:22:02;51.51;48.52;63.12;;
80864;Laerm;70936;51.680;5.974;2023-08-21T21:26:02;50.37;49.09;52.84;;
80864;Laerm;70936;51.680;5.974;2023-08-21T21:30:02;50.3;48.75;55.64;;
80864;Laerm;70936;51.680;5.974;2023-08-21T21:34:01;51.5;48.8;57.29;;
80864;Laerm;70936;51.680;5.974;2023-08-21T21:38:02;50.07;48.73;53.59;;
80864;Laerm;70936;51.680;5.974;2023-08-21T21:42:02;49.98;48.65;54.28;;
80864;Laerm;70936;51.680;5.974;2023-08-21T21:46:02;50.68;48.45;61.05;;
80864;Laerm;70936;51.680;5.974;2023-08-21T21:50:02;53.84;48.86;68.48;;
80864;Laerm;70936;51.680;5.974;2023-08-21T21:54:02;51;48.84;60.54;;
80864;Laerm;70936;51.680;5.974;2023-08-21T21:58:02;52.87;49.38;62.91;;
80864;Laerm;70936;51.680;5.974;2023-08-21T22:02:02;54.18;49.2;64.49;;
80864;Laerm;70936;51.680;5.974;2023-08-21T22:06:02;55.84;48.85;66.77;;
80864;Laerm;70936;51.680;5.974;2023-08-21T22:10:02;53.32;49.25;60.66;;
80864;Laerm;70936;51.680;5.974;2023-08-21T22:14:02;55.68;49.08;61.31;;
80864;Laerm;70936;51.680;5.974;2023-08-21T22:18:02;51.1;48.77;56.44;;
80864;Laerm;70936;51.680;5.974;2023-08-21T22:22:02;50.79;48.87;56.18;;
80864;Laerm;70936;51.680;5.974;2023-08-21T22:26:02;51.72;48.84;59.63;;
80864;Laerm;70936;51.680;5.974;2023-08-21T22:30:02;51.13;49.08;59.32;;
80864;Laerm;70936;51.680;5.974;2023-08-21T22:34:02;51.07;48.92;61.1;;
80864;Laerm;70936;51.680;5.974;2023-08-21T22:38:02;51.22;48.81;57.37;;